Time,TemperatureF,DewpointF,PressureIn,WindDirection,WindDirectionDegrees,WindSpeedMPH,WindSpeedGustMPH,Humidity,HourlyPrecipIn,Conditions,Clouds,dailyrainin,SolarRadiationWatts/m^2,SoftwareType,DateUTC
2013-01-23 00:00:00,13.1,-5.2,30.09,WNW,292,2.0,2.0,43,0.00,FEW,,0.00,0.0,WeatherDisplay:10.37,2013-01-23 05:00:00,
2013-01-23 00:02:00,13.1,-5.2,30.09,NW,326,2.3,0.0,43,0.00,CLR,,0.00,0.0,WeatherDisplay:10.37,2013-01-23 05:02:00,
2013-01-23 00:04:00,13.1,-5.2,30.09,NNW,344,1.1,1.1,43,0.00,CLR,,0.00,0.0,WeatherDisplay:10.37,2013-01-23 05:04:00,
2013-01-23 00:06:00,13.1,-5.2,30.09,NE,34,3.5,3.5,43,0.00,CLR,,0.00,0.0,WeatherDisplay:10.37,2013-01-23 05:06:00,
2013-01-23 00:11:00,13.1,-5.2,30.09,WSW,247,8.1,8.1,43,0.00,CLR,,0.00,0.0,WeatherDisplay:10.37,2013-01-23 05:11:00,
2013-01-23 00:16:00,13.1,-5.7,30.09,West,267,11.5,11.5,42,0.00,CLR,,0.00,0.0,WeatherDisplay:10.37,2013-01-23 05:16:00,
2013-01-23 00:22:00,12.9,-5.9,30.09,NW,325,3.5,3.5,42,0.00,CLR,,0.00,0.0,WeatherDisplay:10.37,2013-01-23 05:22:00,
2013-01-23 00:27:00,12.9,-5.4,30.09,SW,232,1.1,1.1,43,0.00,CLR,,0.00,0.0,WeatherDisplay:10.37,2013-01-23 05:27:00,
2013-01-23 00:33:00,12.9,-5.4,30.09,WSW,247,1.1,1.1,43,0.00,CLR,,0.00,0.0,WeatherDisplay:10.37,2013-01-23 05:33:00,
2013-01-23 00:38:00,12.9,-5.4,30.09,West,267,3.5,3.5,43,0.00,CLR,,0.00,0.0,WeatherDisplay:10.37,2013-01-23 05:38:00,
2013-01-23 00:43:00,12.9,-5.9,30.09,West,274,1.1,0.0,42,0.00,CLR,,0.00,0.0,WeatherDisplay:10.37,2013-01-23 05:43:00,
2013-01-23 00:48:00,12.9,-5.9,30.08,NW,325,3.5,3.5,42,0.00,CLR,,0.00,0.0,WeatherDisplay:10.37,2013-01-23 05:48:00,
2013-01-23 00:53:00,12.8,-5.5,30.08,NW,304,5.8,5.8,43,0.00,CLR,,0.00,0.0,WeatherDisplay:10.37,2013-01-23 05:53:00,
2013-01-23 00:58:00,12.8,-5.5,30.08,NW,311,3.5,3.5,43,0.00,CLR,,0.00,0.0,WeatherDisplay:10.37,2013-01-23 05:58:00,
2013-01-23 01:03:00,12.8,-5.5,30.08,North,354,3.5,3.5,43,0.00,CLR,,0.00,0.0,WeatherDisplay:10.37,2013-01-23 06:03:00,
2013-01-23 01:08:00,12.8,-5.5,30.08,WNW,292,0.0,0.0,43,0.00,CLR,,0.00,0.0,WeatherDisplay:10.37,2013-01-23 06:08:00,
2013-01-23 01:13:00,12.8,-6.0,30.08,NW,311,1.1,1.1,42,0.00,CLR,,0.00,0.0,WeatherDisplay:10.37,2013-01-23 06:13:00,
2013-01-23 01:19:00,12.8,-5.5,30.09,WSW,247,1.1,1.1,43,0.00,CLR,,0.00,0.0,WeatherDisplay:10.37,2013-01-23 06:19:00,
2013-01-23 01:24:00,12.8,-5.5,30.09,WSW,254,1.1,1.1,43,0.00,CLR,,0.00,0.0,WeatherDisplay:10.37,2013-01-23 06:24:00,
2013-01-23 01:29:00,12.8,-5.5,30.08,WNW,296,3.5,3.5,43,0.00,CLR,,0.00,0.0,WeatherDisplay:10.37,2013-01-23 06:29:00,
2013-01-23 01:34:00,12.6,-5.7,30.08,WNW,295,3.5,3.5,43,0.00,CLR,,0.00,0.0,WeatherDisplay:10.37,2013-01-23 06:34:00,
2013-01-23 01:39:00,12.6,-5.2,30.08,WSW,254,3.5,3.5,44,0.00,CLR,,0.00,0.0,WeatherDisplay:10.37,2013-01-23 06:39:00,
2013-01-23 01:44:00,12.6,-5.2,30.09,WNW,292,1.1,0.0,44,0.00,CLR,,0.00,0.0,WeatherDisplay:10.37,2013-01-23 06:44:00,
2013-01-23 01:49:00,12.6,-4.8,30.09,WNW,288,1.1,1.1,45,0.00,CLR,,0.00,0.0,WeatherDisplay:10.37,2013-01-23 06:49:00,
2013-01-23 01:54:00,12.6,-4.8,30.09,WNW,285,2.3,2.3,45,0.00,CLR,,0.00,0.0,WeatherDisplay:10.37,2013-01-23 06:54:00,
2013-01-23 01:59:00,12.6,-5.2,30.10,SW,224,0.0,0.1,44,0.00,CLR,,0.00,0.0,WeatherDisplay:10.37,2013-01-23 06:59:00,
2013-01-23 02:04:00,12.6,-4.3,30.10,NW,318,0.0,0.0,46,0.00,CLR,,0.00,0.0,WeatherDisplay:10.37,2013-01-23 07:04:00,
2013-01-23 02:09:00,12.6,-4.3,30.10,NW,323,1.1,0.0,46,0.00,CLR,,0.00,0.0,WeatherDisplay:10.37,2013-01-23 07:09:00,
2013-01-23 02:14:00,12.6,-4.3,30.10,NW,320,0.0,0.0,46,0.00,CLR,,0.00,0.0,WeatherDisplay:10.37,2013-01-23 07:14:00,
2013-01-23 02:19:00,12.4,-4.5,30.10,WNW,291,1.1,1.1,46,0.00,CLR,,0.00,0.0,WeatherDisplay:10.37,2013-01-23 07:19:00,
2013-01-23 02:24:00,12.4,-4.5,30.10,WNW,294,0.0,0.0,46,0.00,CLR,,0.00,0.0,WeatherDisplay:10.37,2013-01-23 07:24:00,
2013-01-23 02:29:00,12.4,-4.5,30.10,West,274,1.1,1.1,46,0.00,CLR,,0.00,0.0,WeatherDisplay:10.37,2013-01-23 07:29:00,
2013-01-23 02:34:00,12.3,-4.6,30.10,WNW,284,1.0,0.0,46,0.00,CLR,,0.00,0.0,WeatherDisplay:10.37,2013-01-23 07:34:00,
2013-01-23 02:39:00,12.3,-4.1,30.10,SSW,212,1.1,1.1,47,0.00,CLR,,0.00,0.0,WeatherDisplay:10.37,2013-01-23 07:39:00,
2013-01-23 02:44:00,12.3,-4.6,30.10,NW,312,2.3,2.3,46,0.00,CLR,,0.00,0.0,WeatherDisplay:10.37,2013-01-23 07:44:00,
2013-01-23 02:49:00,12.3,-4.1,30.10,North,356,0.0,0.1,47,0.00,CLR,,0.00,0.0,WeatherDisplay:10.37,2013-01-23 07:49:00,
2013-01-23 02:54:00,12.3,-4.1,30.10,NW,308,0.0,0.2,47,0.00,CLR,,0.00,0.0,WeatherDisplay:10.37,2013-01-23 07:54:00,
2013-01-23 02:59:00,12.1,-4.3,30.10,West,281,1.1,1.1,47,0.00,CLR,,0.00,0.0,WeatherDisplay:10.37,2013-01-23 07:59:00,
2013-01-23 03:04:00,12.1,-4.3,30.10,WNW,292,1.1,1.1,47,0.00,CLR,,0.00,0.0,WeatherDisplay:10.37,2013-01-23 08:04:00,
2013-01-23 03:09:00,12.1,-3.9,30.10,WNW,292,0.0,0.0,48,0.00,CLR,,0.00,0.0,WeatherDisplay:10.37,2013-01-23 08:09:00,
2013-01-23 03:14:00,12.1,-4.3,30.10,NW,304,1.1,1.1,47,0.00,CLR,,0.00,0.0,WeatherDisplay:10.37,2013-01-23 08:14:00,
2013-01-23 03:19:00,12.1,-3.9,30.10,West,261,4.6,4.6,48,0.00,FEW,,0.00,0.0,WeatherDisplay:10.37,2013-01-23 08:19:00,
2013-01-23 03:24:00,12.1,-3.9,30.10,WSW,241,0.0,0.0,48,0.00,FEW,,0.00,0.0,WeatherDisplay:10.37,2013-01-23 08:24:00,
2013-01-23 03:29:00,12.1,-3.9,30.10,WNW,298,0.0,0.1,48,0.00,FEW,,0.00,0.0,WeatherDisplay:10.37,2013-01-23 08:29:00,
2013-01-23 03:34:00,12.1,-3.9,30.10,WNW,298,1.1,0.0,48,0.00,FEW,,0.00,0.0,WeatherDisplay:10.37,2013-01-23 08:34:00,
2013-01-23 03:39:00,11.9,-4.1,30.10,NW,308,1.1,1.1,48,0.00,FEW,,0.00,0.0,WeatherDisplay:10.37,2013-01-23 08:39:00,
2013-01-23 03:44:00,11.9,-4.1,30.09,West,261,1.1,1.1,48,0.00,FEW,,0.00,0.0,WeatherDisplay:10.37,2013-01-23 08:44:00,
2013-01-23 03:49:00,12.1,-3.4,30.09,WSW,243,3.5,3.5,49,0.00,FEW,,0.00,0.0,WeatherDisplay:10.37,2013-01-23 08:49:00,
2013-01-23 03:54:00,12.1,-3.4,30.09,WNW,301,1.1,1.1,49,0.00,FEW,,0.00,0.0,WeatherDisplay:10.37,2013-01-23 08:54:00,
2013-01-23 03:59:00,12.1,-3.9,30.09,West,278,0.0,0.0,48,0.00,FEW,,0.00,0.0,WeatherDisplay:10.37,2013-01-23 08:59:00,
2013-01-23 04:05:00,12.1,-3.4,30.09,WNW,287,2.3,2.3,49,0.00,FEW,,0.00,0.0,WeatherDisplay:10.37,2013-01-23 09:05:00,
2013-01-23 04:10:00,12.1,-3.4,30.09,WNW,295,0.0,0.0,49,0.00,FEW,,0.00,0.0,WeatherDisplay:10.37,2013-01-23 09:10:00,
2013-01-23 04:16:00,12.1,-3.4,30.10,WNW,302,0.0,0.1,49,0.00,FEW,,0.00,0.0,WeatherDisplay:10.37,2013-01-23 09:16:00,
2013-01-23 04:21:00,12.1,-3.4,30.10,WNW,288,2.3,2.3,49,0.00,FEW,,0.00,0.0,WeatherDisplay:10.37,2013-01-23 09:21:00,
2013-01-23 04:27:00,12.1,-3.4,30.10,WNW,291,5.8,5.8,49,0.00,FEW,,0.00,0.0,WeatherDisplay:10.37,2013-01-23 09:27:00,
2013-01-23 04:32:00,11.9,-3.6,30.10,NW,304,0.0,0.0,49,0.00,FEW,,0.00,0.0,WeatherDisplay:10.37,2013-01-23 09:32:00,
2013-01-23 09:14:00,16.4,-2.7,30.13,WSW,251,4.6,4.6,42,0.00,FEW,,0.00,246.0,WeatherDisplay:10.37,2013-01-23 14:14:00,
2013-01-23 09:19:00,16.9,-2.8,30.13,West,260,4.6,4.6,41,0.00,CLR,,0.00,253.0,WeatherDisplay:10.37,2013-01-23 14:19:00,
2013-01-23 09:24:00,17.3,-2.4,30.13,NW,320,5.8,5.8,41,0.00,CLR,,0.00,267.0,WeatherDisplay:10.37,2013-01-23 14:24:00,
2013-01-23 09:29:00,17.8,-2.5,30.13,NW,312,3.5,3.5,40,0.00,CLR,,0.00,287.0,WeatherDisplay:10.37,2013-01-23 14:29:00,
2013-01-23 09:34:00,18.0,-2.8,30.13,WNW,291,6.0,6.0,39,0.00,CLR,,0.00,294.0,WeatherDisplay:10.37,2013-01-23 14:34:00,
2013-01-23 09:39:00,18.1,-2.2,30.13,WNW,284,11.5,11.5,40,0.00,CLR,,0.00,315.0,WeatherDisplay:10.37,2013-01-23 14:39:00,
2013-01-23 09:44:00,18.4,-2.5,30.14,WNW,288,11.5,11.5,39,0.00,CLR,,0.00,262.0,WeatherDisplay:10.37,2013-01-23 14:44:00,
2013-01-23 09:49:00,18.3,-2.6,30.14,North,349,7.0,7.0,39,0.00,CLR,,0.00,262.0,WeatherDisplay:10.37,2013-01-23 14:49:00,
2013-01-23 09:54:00,18.4,-2.5,30.14,West,270,3.0,3.0,39,0.00,CLR,,0.00,179.0,WeatherDisplay:10.37,2013-01-23 14:54:00,
2013-01-23 09:59:00,18.4,-2.5,30.14,NW,309,5.0,5.0,39,0.00,CLR,,0.00,297.0,WeatherDisplay:10.37,2013-01-23 14:59:00,
2013-01-23 10:04:00,18.8,-2.1,30.14,North,359,6.9,6.9,39,0.00,CLR,,0.00,267.0,WeatherDisplay:10.37,2013-01-23 15:04:00,
2013-01-23 10:09:00,18.9,-2.0,30.14,SSW,209,3.5,3.5,39,0.00,CLR,,0.00,318.0,WeatherDisplay:10.37,2013-01-23 15:09:00,
2013-01-23 10:14:00,18.9,-2.6,30.14,WNW,302,8.1,8.1,38,0.00,CLR,,0.00,343.0,WeatherDisplay:10.37,2013-01-23 15:14:00,
2013-01-23 10:19:00,18.9,-2.6,30.14,ESE,102,1.0,1.4,38,0.00,SCT,,0.00,375.0,WeatherDisplay:10.37,2013-01-23 15:19:00,
2013-01-23 10:24:00,19.1,-2.4,30.14,NW,320,5.8,5.8,38,0.00,SCT,,0.00,287.0,WeatherDisplay:10.37,2013-01-23 15:24:00,
2013-01-23 10:29:00,19.1,-2.4,30.14,WNW,298,3.0,3.1,38,0.00,SCT,,0.00,211.0,WeatherDisplay:10.37,2013-01-23 15:29:00,
2013-01-23 10:34:00,19.1,-3.0,30.14,West,272,5.8,5.8,37,0.00,SCT,,0.00,276.0,WeatherDisplay:10.37,2013-01-23 15:34:00,
2013-01-23 10:39:00,19.1,-2.4,30.14,South,171,3.5,0.0,38,0.00,SCT,,0.00,443.0,WeatherDisplay:10.37,2013-01-23 15:39:00,
2013-01-23 10:44:00,19.5,-2.0,30.14,WSW,258,3.5,3.5,38,0.00,SCT,,0.00,408.0,WeatherDisplay:10.37,2013-01-23 15:44:00,
2013-01-23 10:49:00,19.7,-2.4,30.14,WNW,289,3.5,3.5,37,0.00,SCT,,0.00,311.0,WeatherDisplay:10.37,2013-01-23 15:49:00,
2013-01-23 10:54:00,19.9,-2.2,30.14,SW,222,8.0,8.0,37,0.00,SCT,,0.00,380.0,WeatherDisplay:10.37,2013-01-23 15:54:00,
2013-01-23 10:59:00,20.0,-2.7,30.13,WNW,299,4.6,4.6,36,0.00,SCT,,0.00,419.0,WeatherDisplay:10.37,2013-01-23 15:59:00,
2013-01-23 11:04:00,20.5,-1.7,30.13,NW,323,1.1,1.1,37,0.00,SCT,,0.00,461.0,WeatherDisplay:10.37,2013-01-23 16:04:00,
2013-01-23 11:09:00,20.6,-2.8,30.13,WNW,292,3.5,3.5,35,0.00,SCT,,0.00,519.0,WeatherDisplay:10.37,2013-01-23 16:09:00,
2013-01-23 11:14:00,20.8,-2.6,30.12,NNW,333,3.5,3.5,35,0.00,SCT,,0.00,271.0,WeatherDisplay:10.37,2013-01-23 16:14:00,
2013-01-23 11:19:00,20.8,-3.2,30.12,NNW,333,5.8,5.8,34,0.00,SCT,,0.00,269.0,WeatherDisplay:10.37,2013-01-23 16:19:00,
2013-01-23 11:24:00,20.5,-3.5,30.12,West,278,8.1,8.1,34,0.00,SCT,,0.00,218.0,WeatherDisplay:10.37,2013-01-23 16:24:00,
2013-01-23 11:29:00,20.3,-3.0,30.11,South,172,4.6,4.6,35,0.00,SCT,,0.00,368.0,WeatherDisplay:10.37,2013-01-23 16:29:00,
2013-01-23 11:34:00,20.3,-3.0,30.11,WNW,301,4.0,4.0,35,0.00,SCT,,0.00,306.0,WeatherDisplay:10.37,2013-01-23 16:34:00,
2013-01-23 11:39:00,20.2,-3.7,30.11,SW,226,9.2,9.2,34,0.00,SCT,,0.00,264.0,WeatherDisplay:10.37,2013-01-23 16:39:00,
2013-01-23 11:44:00,19.9,-3.4,30.10,NNW,346,2.3,2.3,35,0.00,SCT,,0.00,197.0,WeatherDisplay:10.37,2013-01-23 16:44:00,
2013-01-23 11:49:00,19.9,-3.4,30.10,NW,309,4.6,4.6,35,0.00,SCT,,0.00,380.0,WeatherDisplay:10.37,2013-01-23 16:49:00,
2013-01-23 11:54:00,20.2,-3.1,30.10,NW,323,2.3,2.3,35,0.00,SCT,,0.00,348.0,WeatherDisplay:10.37,2013-01-23 16:54:00,
2013-01-23 11:59:00,20.3,-3.0,30.09,NNW,343,5.8,5.8,35,0.00,SCT,,0.00,252.0,WeatherDisplay:10.37,2013-01-23 16:59:00,
2013-01-23 12:04:00,20.0,-3.9,30.09,SSW,209,3.5,3.5,34,0.00,SCT,,0.00,227.0,WeatherDisplay:10.37,2013-01-23 17:04:00,
2013-01-23 12:09:00,19.9,-3.4,30.09,NNE,14,8.1,8.1,35,0.00,SCT,,0.00,334.0,WeatherDisplay:10.37,2013-01-23 17:09:00,
2013-01-23 12:14:00,20.0,-3.3,30.08,NW,309,11.5,11.5,35,0.00,SCT,,0.00,401.0,WeatherDisplay:10.37,2013-01-23 17:14:00,
2013-01-23 12:19:00,20.2,-3.1,30.08,SSE,167,4.6,4.6,35,0.00,BKN,,0.00,218.0,WeatherDisplay:10.37,2013-01-23 17:19:00,
2013-01-23 12:24:00,20.3,-3.7,30.08,WSW,239,8.1,8.1,34,0.00,BKN,,0.00,454.0,WeatherDisplay:10.37,2013-01-23 17:24:00,
2013-01-23 12:29:00,20.6,-2.8,30.07,North,0,5.0,5.0,35,0.00,BKN,,0.00,514.0,WeatherDisplay:10.37,2013-01-23 17:29:00,
2013-01-23 12:34:00,20.8,-3.2,30.07,West,270,8.1,8.1,34,0.00,BKN,,0.00,227.0,WeatherDisplay:10.37,2013-01-23 17:34:00,
2013-01-23 12:39:00,21.1,-2.9,30.07,West,278,2.3,2.3,34,0.00,BKN,,0.00,216.0,WeatherDisplay:10.37,2013-01-23 17:39:00,
2013-01-23 12:44:00,21.0,-4.3,30.06,WNW,285,11.5,11.5,32,0.00,BKN,,0.00,197.0,WeatherDisplay:10.37,2013-01-23 17:44:00,
2013-01-23 12:49:00,20.5,-4.1,30.06,WSW,244,8.1,8.1,33,0.00,BKN,,0.00,199.0,WeatherDisplay:10.37,2013-01-23 17:49:00,
2013-01-23 12:55:00,20.5,-3.5,30.06,WNW,291,2.3,2.3,34,0.00,BKN,,0.00,292.0,WeatherDisplay:10.37,2013-01-23 17:55:00,
2013-01-23 13:00:00,20.5,-3.5,30.06,NW,306,3.5,3.5,34,0.00,BKN,,0.00,157.0,WeatherDisplay:10.37,2013-01-23 18:00:00,
2013-01-23 13:05:00,20.5,-2.3,30.06,NW,313,3.5,3.5,36,0.00,BKN,,0.00,123.0,WeatherDisplay:10.37,2013-01-23 18:05:00,
2013-01-23 13:10:00,20.0,-2.1,30.06,WNW,302,4.6,4.6,37,0.00,BKN,,0.00,128.0,WeatherDisplay:10.37,2013-01-23 18:10:00,
2013-01-23 13:15:00,19.9,-2.2,30.06,South,181,2.3,2.3,37,0.00,BKN,,0.00,199.0,WeatherDisplay:10.37,2013-01-23 18:15:00,
2013-01-23 13:20:00,19.9,-2.8,30.06,West,260,6.9,6.9,36,0.00,BKN,,0.00,264.0,WeatherDisplay:10.37,2013-01-23 18:20:00,
2013-01-23 13:25:00,20.3,-2.5,30.06,WSW,237,5.8,5.8,36,0.00,BKN,,0.00,470.0,WeatherDisplay:10.37,2013-01-23 18:25:00,
2013-01-23 13:30:00,21.0,-3.0,30.05,NW,304,2.3,2.3,34,0.00,BKN,,0.00,410.0,WeatherDisplay:10.37,2013-01-23 18:30:00,
2013-01-23 13:35:00,21.4,-3.3,30.05,SW,223,3.5,3.5,33,0.00,BKN,,0.00,148.0,WeatherDisplay:10.37,2013-01-23 18:35:00,
2013-01-23 13:40:00,21.3,-2.8,30.05,NW,325,2.3,2.3,34,0.00,BKN,,0.00,113.0,WeatherDisplay:10.37,2013-01-23 18:40:00,
2013-01-23 13:45:00,21.1,-2.3,30.05,WNW,301,2.3,2.3,35,0.00,BKN,,0.00,127.0,WeatherDisplay:10.37,2013-01-23 18:45:00,
2013-01-23 13:50:00,20.6,-2.2,30.05,SSW,200,4.6,4.6,36,0.00,BKN,,0.00,104.0,WeatherDisplay:10.37,2013-01-23 18:50:00,
2013-01-23 13:55:00,20.2,-2.0,30.05,NW,309,4.6,4.6,37,0.00,BKN,,0.00,100.0,WeatherDisplay:10.37,2013-01-23 18:55:00,
2013-01-23 14:00:00,19.9,-1.7,30.05,North,0,3.0,3.0,38,0.00,BKN,,0.00,104.0,WeatherDisplay:10.37,2013-01-23 19:00:00,
2013-01-23 14:05:00,19.7,-1.8,30.05,SE,145,4.6,4.6,38,0.00,BKN,,0.00,343.0,WeatherDisplay:10.37,2013-01-23 19:05:00,
2013-01-23 14:10:00,19.7,-1.8,30.05,NW,315,6.0,6.0,38,0.00,BKN,,0.00,128.0,WeatherDisplay:10.37,2013-01-23 19:10:00,
2013-01-23 14:15:00,19.7,-1.8,30.05,WNW,289,6.9,6.9,38,0.00,BKN,,0.00,121.0,WeatherDisplay:10.37,2013-01-23 19:15:00,
2013-01-23 14:20:00,19.5,-2.0,30.05,WNW,302,2.3,2.3,38,0.00,BKN,,0.00,114.0,WeatherDisplay:10.37,2013-01-23 19:20:00,
2013-01-23 14:25:00,19.5,-2.0,30.05,NW,315,1.1,1.1,38,0.00,BKN,,0.00,130.0,WeatherDisplay:10.37,2013-01-23 19:25:00,
2013-01-23 14:30:00,19.7,-2.4,30.05,NNW,340,3.5,3.5,37,0.00,BKN,,0.00,236.0,WeatherDisplay:10.37,2013-01-23 19:30:00,
2013-01-23 14:35:00,19.9,-2.2,30.05,West,272,4.6,4.6,37,0.00,BKN,,0.00,322.0,WeatherDisplay:10.37,2013-01-23 19:35:00,
2013-01-23 14:40:00,20.5,-3.5,30.05,WNW,294,1.1,1.1,34,0.00,BKN,,0.00,220.0,WeatherDisplay:10.37,2013-01-23 19:40:00,
2013-01-23 14:45:00,20.6,-4.7,30.05,WSW,239,2.3,2.3,32,0.00,BKN,,0.00,150.0,WeatherDisplay:10.37,2013-01-23 19:45:00,
2013-01-23 14:50:00,20.5,-4.1,30.05,North,10,3.5,3.5,33,0.00,BKN,,0.00,91.0,WeatherDisplay:10.37,2013-01-23 19:50:00,
2013-01-23 14:55:00,20.0,-2.7,30.05,WNW,296,1.1,1.1,36,0.00,BKN,,0.00,63.0,WeatherDisplay:10.37,2013-01-23 19:55:00,
2013-01-23 15:00:00,19.7,-2.4,30.05,WNW,285,2.3,2.3,37,0.00,BKN,,0.00,102.0,WeatherDisplay:10.37,2013-01-23 20:00:00,
2013-01-23 15:05:00,19.7,-2.4,30.05,NW,316,6.9,6.9,37,0.00,BKN,,0.00,130.0,WeatherDisplay:10.37,2013-01-23 20:05:00,
2013-01-23 15:10:00,19.7,-2.4,30.05,West,268,1.1,0.0,37,0.00,BKN,,0.00,158.0,WeatherDisplay:10.37,2013-01-23 20:10:00,
2013-01-23 15:15:00,20.0,-2.1,30.05,WNW,292,6.9,6.9,37,0.00,BKN,,0.00,157.0,WeatherDisplay:10.37,2013-01-23 20:15:00,
2013-01-23 15:20:00,20.0,-2.7,30.05,West,265,4.6,4.6,36,0.00,BKN,,0.00,83.0,WeatherDisplay:10.37,2013-01-23 20:20:00,
2013-01-23 15:25:00,19.7,-3.0,30.05,WSW,251,5.8,5.8,36,0.00,BKN,,0.00,121.0,WeatherDisplay:10.37,2013-01-23 20:25:00,
2013-01-23 15:30:00,19.5,-2.0,30.05,NNW,335,2.0,2.0,38,0.00,BKN,,0.00,106.0,WeatherDisplay:10.37,2013-01-23 20:30:00,
2013-01-23 15:35:00,19.5,-0.9,30.05,NW,325,5.8,5.8,40,0.00,BKN,,0.00,116.0,WeatherDisplay:10.37,2013-01-23 20:35:00,
2013-01-23 15:40:00,19.7,-1.3,30.05,WSW,258,1.1,0.0,39,0.00,BKN,,0.00,84.0,WeatherDisplay:10.37,2013-01-23 20:40:00,
2013-01-23 15:45:00,19.7,-1.3,30.05,WNW,292,3.5,3.5,39,0.00,BKN,,0.00,62.0,WeatherDisplay:10.37,2013-01-23 20:45:00,
2013-01-23 15:50:00,19.7,-1.8,30.05,North,350,8.1,8.1,38,0.00,BKN,,0.00,44.0,WeatherDisplay:10.37,2013-01-23 20:50:00,
2013-01-23 15:55:00,19.2,-1.2,30.05,NW,318,5.8,5.8,40,0.00,BKN,,0.00,49.0,WeatherDisplay:10.37,2013-01-23 20:55:00,
2013-01-23 16:00:00,18.9,-0.5,30.06,North,0,8.1,8.1,42,0.00,BKN,,0.00,46.0,WeatherDisplay:10.37,2013-01-23 21:00:00,
2013-01-23 16:05:00,18.8,0.9,30.06,North,359,1.1,1.1,45,0.00,BKN,,0.00,39.0,WeatherDisplay:10.37,2013-01-23 21:05:00,
2013-01-23 16:10:00,18.6,1.7,30.06,NW,309,3.5,3.5,47,0.00,BKN,,0.00,60.0,WeatherDisplay:10.37,2013-01-23 21:10:00,
2013-01-23 16:15:00,18.4,1.5,30.05,NNW,328,1.1,1.3,47,0.00,BKN,,0.00,42.0,WeatherDisplay:10.37,2013-01-23 21:15:00,
2013-01-23 16:20:00,18.4,0.1,30.05,NW,315,4.6,4.6,44,0.00,BKN,,0.00,40.0,WeatherDisplay:10.37,2013-01-23 21:20:00,
2013-01-23 16:25:00,18.6,-0.2,30.05,NW,326,3.5,3.5,43,0.00,BKN,,0.00,39.0,WeatherDisplay:10.37,2013-01-23 21:25:00,
2013-01-23 16:30:00,18.6,0.7,30.05,WNW,288,4.6,4.6,45,0.00,BKN,,0.00,30.0,WeatherDisplay:10.37,2013-01-23 21:30:00,
2013-01-23 16:35:00,18.4,1.5,30.05,North,356,7.0,7.0,47,0.00,BKN,,0.00,26.0,WeatherDisplay:10.37,2013-01-23 21:35:00,
2013-01-23 16:40:00,18.3,1.9,30.05,NW,305,2.3,0.0,48,0.00,BKN,,0.00,23.0,WeatherDisplay:10.37,2013-01-23 21:40:00,
2013-01-23 16:45:00,18.1,1.7,30.05,NNW,332,1.1,1.1,48,0.00,BKN,,0.00,14.0,WeatherDisplay:10.37,2013-01-23 21:45:00,
2013-01-23 16:50:00,18.0,1.6,30.05,NW,323,4.6,4.6,48,0.00,BKN,,0.00,12.0,WeatherDisplay:10.37,2013-01-23 21:50:00,
2013-01-23 16:55:00,17.8,1.8,30.05,NW,306,1.1,0.0,49,0.00,BKN,,0.00,9.0,WeatherDisplay:10.37,2013-01-23 21:55:00,
2013-01-23 17:00:00,17.8,1.8,30.05,WNW,291,0.0,0.0,49,0.00,BKN,,0.00,7.0,WeatherDisplay:10.37,2013-01-23 22:00:00,
2013-01-23 17:05:00,17.7,1.7,30.05,WNW,288,0.0,0.0,49,0.00,BKN,,0.00,0.0,WeatherDisplay:10.37,2013-01-23 22:05:00,
2013-01-23 17:10:00,17.7,1.7,30.05,WNW,294,1.1,0.0,49,0.00,BKN,,0.00,0.0,WeatherDisplay:10.37,2013-01-23 22:10:00,
2013-01-23 17:15:00,17.5,1.6,30.05,WNW,296,0.0,0.0,49,0.00,BKN,,0.00,0.0,WeatherDisplay:10.37,2013-01-23 22:15:00,
2013-01-23 17:20:00,17.5,1.6,30.05,WNW,296,0.0,0.0,49,0.00,SCT,,0.00,0.0,WeatherDisplay:10.37,2013-01-23 22:20:00,
2013-01-23 17:25:00,17.3,0.5,30.05,WNW,302,1.1,1.1,47,0.00,SCT,,0.00,0.0,WeatherDisplay:10.37,2013-01-23 22:25:00,
2013-01-23 17:30:00,17.3,0.5,30.06,WNW,296,0.0,0.0,47,0.00,SCT,,0.00,0.0,WeatherDisplay:10.37,2013-01-23 22:30:00,
2013-01-23 17:35:00,17.3,0.9,30.06,WNW,294,0.0,0.3,48,0.00,SCT,,0.00,0.0,WeatherDisplay:10.37,2013-01-23 22:35:00,
2013-01-23 17:40:00,17.2,0.4,30.06,WNW,295,1.1,0.0,47,0.00,SCT,,0.00,0.0,WeatherDisplay:10.37,2013-01-23 22:40:00,
2013-01-23 17:45:00,17.2,0.4,30.06,WNW,294,0.0,0.0,47,0.00,SCT,,0.00,0.0,WeatherDisplay:10.37,2013-01-23 22:45:00,
2013-01-23 17:50:00,17.2,0.4,30.06,WNW,289,0.0,0.0,47,0.00,SCT,,0.00,0.0,WeatherDisplay:10.37,2013-01-23 22:50:00,
2013-01-23 17:55:00,17.0,0.2,30.06,WNW,294,0.0,0.0,47,0.00,SCT,,0.00,0.0,WeatherDisplay:10.37,2013-01-23 22:55:00,
2013-01-23 18:00:00,17.0,0.2,30.07,WNW,294,0.0,0.0,47,0.00,SCT,,0.00,0.0,WeatherDisplay:10.37,2013-01-23 23:00:00,
2013-01-23 18:05:00,17.0,0.2,30.07,WNW,294,0.0,0.0,47,0.00,SCT,,0.00,0.0,WeatherDisplay:10.37,2013-01-23 23:05:00,
2013-01-23 18:10:00,16.9,0.6,30.07,WNW,294,0.0,0.0,48,0.00,SCT,,0.00,0.0,WeatherDisplay:10.37,2013-01-23 23:10:00,
2013-01-23 18:15:00,16.9,0.6,30.07,WNW,294,0.0,0.0,48,0.00,SCT,,0.00,0.0,WeatherDisplay:10.37,2013-01-23 23:15:00,
2013-01-23 18:20:00,16.9,0.6,30.07,WNW,294,0.0,0.0,48,0.00,SCT,,0.00,0.0,WeatherDisplay:10.37,2013-01-23 23:20:00,
2013-01-23 18:25:00,16.7,0.4,30.07,WNW,294,0.0,0.0,48,0.00,SCT,,0.00,0.0,WeatherDisplay:10.37,2013-01-23 23:25:00,
2013-01-23 18:30:00,16.7,0.8,30.06,WNW,294,0.0,0.0,49,0.00,SCT,,0.00,0.0,WeatherDisplay:10.37,2013-01-23 23:30:00,
2013-01-23 18:36:00,16.7,0.8,30.06,WNW,294,0.0,0.0,49,0.00,SCT,,0.00,0.0,WeatherDisplay:10.37,2013-01-23 23:36:00,
2013-01-23 18:41:00,16.7,0.8,30.06,WNW,294,0.0,0.0,49,0.00,SCT,,0.00,0.0,WeatherDisplay:10.37,2013-01-23 23:41:00,
2013-01-23 18:46:00,16.7,0.4,30.06,WNW,294,0.0,0.0,48,0.00,SCT,,0.00,0.0,WeatherDisplay:10.37,2013-01-23 23:46:00,
2013-01-23 18:51:00,16.5,0.6,30.06,WNW,294,0.0,0.0,49,0.00,SCT,,0.00,0.0,WeatherDisplay:10.37,2013-01-23 23:51:00,
2013-01-23 18:56:00,16.5,0.6,30.06,WNW,294,0.0,0.0,49,0.00,SCT,,0.00,0.0,WeatherDisplay:10.37,2013-01-23 23:56:00,
2013-01-23 19:01:00,16.4,0.5,30.06,WNW,294,0.0,0.0,49,0.00,SCT,,0.00,0.0,WeatherDisplay:10.37,2013-01-24 00:01:00,
2013-01-23 19:06:00,16.4,1.0,30.06,WNW,294,0.0,0.0,50,0.00,SCT,,0.00,0.0,WeatherDisplay:10.37,2013-01-24 00:06:00,
2013-01-23 19:11:00,16.2,0.8,30.06,WNW,294,0.0,0.0,50,0.00,SCT,,0.00,0.0,WeatherDisplay:10.37,2013-01-24 00:11:00,
2013-01-23 19:16:00,16.1,0.3,30.05,WNW,294,0.0,0.0,49,0.00,SCT,,0.00,0.0,WeatherDisplay:10.37,2013-01-24 00:16:00,
2013-01-23 19:21:00,16.1,0.7,30.05,WNW,294,0.0,0.0,50,0.00,SCT,,0.00,0.0,WeatherDisplay:10.37,2013-01-24 00:21:00,
2013-01-23 19:26:00,15.9,0.5,30.05,WNW,294,0.0,0.0,50,0.00,SCT,,0.00,0.0,WeatherDisplay:10.37,2013-01-24 00:26:00,
2013-01-23 19:31:00,15.9,0.5,30.05,WNW,294,1.1,1.1,50,0.00,SCT,,0.00,0.0,WeatherDisplay:10.37,2013-01-24 00:31:00,
2013-01-23 19:36:00,15.7,0.3,30.05,WNW,294,0.0,0.0,50,0.00,SCT,,0.00,0.0,WeatherDisplay:10.37,2013-01-24 00:36:00,
2013-01-23 19:41:00,15.6,0.2,30.05,WNW,294,0.0,0.0,50,0.00,SCT,,0.00,0.0,WeatherDisplay:10.37,2013-01-24 00:41:00,
2013-01-23 19:46:00,15.6,0.7,30.05,WNW,294,0.0,0.0,51,0.00,SCT,,0.00,0.0,WeatherDisplay:10.37,2013-01-24 00:46:00,
2013-01-23 19:51:00,15.4,0.9,30.05,WNW,294,0.0,0.0,52,0.00,SCT,,0.00,0.0,WeatherDisplay:10.37,2013-01-24 00:51:00,
2013-01-23 19:56:00,15.4,0.9,30.05,WNW,294,0.0,0.0,52,0.00,SCT,,0.00,0.0,WeatherDisplay:10.37,2013-01-24 00:56:00,
2013-01-23 20:01:00,15.4,1.3,30.05,WNW,294,0.0,0.1,53,0.00,SCT,,0.00,0.0,WeatherDisplay:10.37,2013-01-24 01:01:00,
2013-01-23 20:06:00,15.4,1.3,30.05,WNW,294,0.0,0.0,53,0.00,SCT,,0.00,0.0,WeatherDisplay:10.37,2013-01-24 01:06:00,
2013-01-23 20:11:00,15.4,1.3,30.05,WNW,294,0.0,0.0,53,0.00,SCT,,0.00,0.0,WeatherDisplay:10.37,2013-01-24 01:11:00,
2013-01-23 20:16:00,15.2,1.1,30.05,WNW,294,0.0,0.0,53,0.00,SCT,,0.00,0.0,WeatherDisplay:10.37,2013-01-24 01:16:00,
2013-01-23 20:21:00,15.2,1.1,30.05,WNW,294,0.0,0.0,53,0.00,SCT,,0.00,0.0,WeatherDisplay:10.37,2013-01-24 01:21:00,
2013-01-23 20:26:00,15.2,1.1,30.05,WNW,294,0.0,0.0,53,0.00,SCT,,0.00,0.0,WeatherDisplay:10.37,2013-01-24 01:26:00,
2013-01-23 20:31:00,15.2,1.1,30.04,WNW,294,0.0,0.0,53,0.00,SCT,,0.00,0.0,WeatherDisplay:10.37,2013-01-24 01:31:00,
2013-01-23 20:36:00,15.2,1.1,30.04,WNW,294,0.0,0.0,53,0.00,SCT,,0.00,0.0,WeatherDisplay:10.37,2013-01-24 01:36:00,
2013-01-23 20:41:00,15.2,1.5,30.04,WNW,294,0.0,0.0,54,0.00,SCT,,0.00,0.0,WeatherDisplay:10.37,2013-01-24 01:41:00,
2013-01-23 20:46:00,15.1,1.4,30.04,WNW,294,1.1,1.1,54,0.00,SCT,,0.00,0.0,WeatherDisplay:10.37,2013-01-24 01:46:00,
2013-01-23 20:51:00,15.1,1.4,30.04,WNW,294,0.0,0.0,54,0.00,SCT,,0.00,0.0,WeatherDisplay:10.37,2013-01-24 01:51:00,
2013-01-23 20:57:00,15.1,1.4,30.04,WNW,294,0.0,0.0,54,0.00,SCT,,0.00,0.0,WeatherDisplay:10.37,2013-01-24 01:57:00,
2013-01-23 21:03:00,15.1,1.8,30.05,WNW,294,0.0,0.0,55,0.00,SCT,,0.00,0.0,WeatherDisplay:10.37,2013-01-24 02:03:00,
2013-01-23 21:09:00,14.9,2.0,30.05,WNW,294,0.0,0.0,56,0.00,SCT,,0.00,0.0,WeatherDisplay:10.37,2013-01-24 02:09:00,
2013-01-23 21:14:00,14.9,2.0,30.05,WNW,294,0.0,0.0,56,0.00,SCT,,0.00,0.0,WeatherDisplay:10.37,2013-01-24 02:14:00,
2013-01-23 21:19:00,14.9,2.0,30.05,WNW,294,0.0,0.0,56,0.00,FEW,,0.00,0.0,WeatherDisplay:10.37,2013-01-24 02:19:00,
2013-01-23 21:24:00,14.8,1.9,30.05,WNW,294,0.0,0.0,56,0.00,FEW,,0.00,0.0,WeatherDisplay:10.37,2013-01-24 02:24:00,
2013-01-23 21:29:00,14.8,2.3,30.05,WNW,294,0.0,0.0,57,0.00,FEW,,0.00,0.0,WeatherDisplay:10.37,2013-01-24 02:29:00,
2013-01-23 21:34:00,14.6,2.1,30.05,WNW,294,0.0,0.0,57,0.00,FEW,,0.00,0.0,WeatherDisplay:10.37,2013-01-24 02:34:00,
2013-01-23 21:39:00,14.6,2.1,30.05,WNW,294,0.0,0.0,57,0.00,FEW,,0.00,0.0,WeatherDisplay:10.37,2013-01-24 02:39:00,
2013-01-23 21:44:00,14.6,2.1,30.05,WNW,294,0.0,0.0,57,0.00,FEW,,0.00,0.0,WeatherDisplay:10.37,2013-01-24 02:44:00,
2013-01-23 21:49:00,14.6,1.7,30.05,WNW,294,0.0,0.0,56,0.00,FEW,,0.00,0.0,WeatherDisplay:10.37,2013-01-24 02:49:00,
2013-01-23 21:54:00,14.4,1.5,30.05,WNW,294,0.0,0.0,56,0.00,FEW,,0.00,0.0,WeatherDisplay:10.37,2013-01-24 02:54:00,
2013-01-23 21:59:00,14.4,1.5,30.05,WNW,294,0.0,0.0,56,0.00,FEW,,0.00,0.0,WeatherDisplay:10.37,2013-01-24 02:59:00,
2013-01-23 22:04:00,14.4,1.9,30.05,WNW,294,0.0,0.0,57,0.00,FEW,,0.00,0.0,WeatherDisplay:10.37,2013-01-24 03:04:00,
2013-01-23 22:09:00,14.4,2.3,30.05,WNW,294,0.0,0.0,58,0.00,FEW,,0.00,0.0,WeatherDisplay:10.37,2013-01-24 03:09:00,
2013-01-23 22:14:00,14.4,2.3,30.05,WNW,294,0.0,0.0,58,0.00,FEW,,0.00,0.0,WeatherDisplay:10.37,2013-01-24 03:14:00,
2013-01-23 22:19:00,14.6,2.5,30.05,WNW,294,0.0,0.0,58,0.00,FEW,,0.00,0.0,WeatherDisplay:10.37,2013-01-24 03:19:00,
2013-01-23 22:24:00,14.6,2.5,30.05,WNW,294,0.0,0.0,58,0.00,FEW,,0.00,0.0,WeatherDisplay:10.37,2013-01-24 03:24:00,
2013-01-23 22:29:00,14.6,2.5,30.05,WNW,294,0.0,0.0,58,0.00,FEW,,0.00,0.0,WeatherDisplay:10.37,2013-01-24 03:29:00,
2013-01-23 22:34:00,14.6,2.1,30.05,WNW,294,0.0,0.0,57,0.00,FEW,,0.00,0.0,WeatherDisplay:10.37,2013-01-24 03:34:00,
2013-01-23 22:39:00,14.6,2.5,30.05,WNW,294,0.0,0.0,58,0.00,FEW,,0.00,0.0,WeatherDisplay:10.37,2013-01-24 03:39:00,
2013-01-23 22:44:00,14.6,2.5,30.05,WNW,294,0.0,0.0,58,0.00,FEW,,0.00,0.0,WeatherDisplay:10.37,2013-01-24 03:44:00,
2013-01-23 22:49:00,14.8,2.7,30.05,WNW,294,0.0,0.0,58,0.00,FEW,,0.00,0.0,WeatherDisplay:10.37,2013-01-24 03:49:00,
2013-01-23 22:54:00,14.8,2.7,30.05,WNW,294,0.0,0.0,58,0.00,FEW,,0.00,0.0,WeatherDisplay:10.37,2013-01-24 03:54:00,
2013-01-23 22:59:00,14.8,2.7,30.05,WNW,294,0.0,0.0,58,0.00,FEW,,0.00,0.0,WeatherDisplay:10.37,2013-01-24 03:59:00,
2013-01-23 23:04:00,14.8,2.3,30.05,WNW,294,0.0,0.0,57,0.00,FEW,,0.00,0.0,WeatherDisplay:10.37,2013-01-24 04:04:00,
2013-01-23 23:09:00,14.8,2.7,30.05,WNW,294,0.0,0.0,58,0.00,FEW,,0.00,0.0,WeatherDisplay:10.37,2013-01-24 04:09:00,
2013-01-23 23:14:00,14.9,2.8,30.05,WNW,294,0.0,0.0,58,0.00,FEW,,0.00,0.0,WeatherDisplay:10.37,2013-01-24 04:14:00,
2013-01-23 23:19:00,15.1,3.0,30.05,WNW,294,0.0,0.0,58,0.00,OVC,,0.00,0.0,WeatherDisplay:10.37,2013-01-24 04:19:00,
2013-01-23 23:24:00,15.1,2.6,30.05,WNW,294,0.0,0.0,57,0.00,OVC,,0.00,0.0,WeatherDisplay:10.37,2013-01-24 04:24:00,
2013-01-23 23:29:00,15.1,1.8,30.03,WNW,294,0.0,0.0,55,0.00,OVC,,0.00,0.0,WeatherDisplay:10.37,2013-01-24 04:29:00,
2013-01-23 23:34:00,15.2,1.5,30.03,WNW,294,1.1,0.0,54,0.00,OVC,,0.00,0.0,WeatherDisplay:10.37,2013-01-24 04:34:00,
2013-01-23 23:39:00,15.2,1.5,30.03,WNW,294,1.1,0.0,54,0.00,OVC,,0.00,0.0,WeatherDisplay:10.37,2013-01-24 04:39:00,
2013-01-23 23:44:00,15.4,1.7,30.03,WNW,294,0.0,0.0,54,0.00,OVC,,0.00,0.0,WeatherDisplay:10.37,2013-01-24 04:44:00,
2013-01-23 23:49:00,15.4,1.3,30.03,WNW,294,0.0,0.0,53,0.00,OVC,,0.00,0.0,WeatherDisplay:10.37,2013-01-24 04:49:00,
2013-01-23 23:54:00,15.6,1.5,30.03,WNW,294,0.0,0.0,53,0.00,OVC,,0.00,0.0,WeatherDisplay:10.37,2013-01-24 04:54:00,
2013-01-23 23:59:00,15.6,1.5,30.02,WNW,294,0.0,0.0,53,0.00,OVC,,0.00,0.0,WeatherDisplay:10.37,2013-01-24 04:59:00,